Data for 04/20/2006

Time Sea-Level Adjusted Pressure Absolute Pressure Temperature Relative Humidity Dew Point   
(mb) (inHg) (mb) (inHg) (C) (F) (%) (C) (F)
00:05 1019 30.09 848 25.04 2.9 37.2 61 -3.8 25.1
00:10 1019 30.09 848 25.04 2.9 37.1 62 -3.6 25.5
00:15 1019 30.09 848 25.04 2.6 36.7 63 -3.6 25.5
00:20 1019 30.09 848 25.04 2.5 36.4 65 -3.6 25.6
00:25 1019 30.09 848 25.04 2.6 36.6 64 -3.6 25.6
00:30 1019 30.09 848 25.04 2.8 37.1 63 -3.6 25.5
00:35 1019 30.09 848 25.04 2.7 36.9 63 -3.7 25.4
00:40 1019 30.09 848 25.04 2.3 36.2 65 -3.6 25.5
00:45 1019 30.09 848 25.04 2.1 35.7 65 -3.9 25
00:50 1019 30.09 848 25.04 2.1 35.9 66 -3.6 25.5
00:55 1019 30.09 848 25.04 2 35.5 67 -3.5 25.8
01:00 1019 30.09 848 25.04 1.8 35.2 69 -3.3 26
01:05 1019 30.09 848 25.04 1.6 34.9 70 -3.3 26.1
01:10 1019 30.09 848 25.04 1.6 34.9 69 -3.4 25.9
01:15 1019 30.09 848 25.04 1.7 35 70 -3.3 26.1
01:20 1019 30.09 848 25.04 1.6 34.9 69 -3.5 25.7
01:25 1019 30.09 848 25.04 1.6 34.9 69 -3.5 25.7
01:30 1019 30.09 848 25.04 1.5 34.7 69 -3.5 25.6
01:35 1019 30.09 848 25.04 1.3 34.4 71 -3.3 26
01:40 1019 30.09 848 25.04 1.2 34.2 71 -3.4 25.8
01:45 1019 30.09 848 25.04 1.1 34 71 -3.6 25.6
01:50 1019 30.09 848 25.04 1.2 34.2 70 -3.6 25.5
01:55 1019 30.09 848 25.04 1.4 34.4 69 -3.7 25.4
02:00 1019 30.09 848 25.04 1.3 34.3 70 -3.7 25.4
02:05 1019 30.09 848 25.04 1.2 34.2 69 -3.8 25.1
02:10 1019 30.09 848 25.04 1.1 34.1 69 -3.9 25
02:15 1019 30.09 848 25.04 1.1 34 68 -4.1 24.6
02:20 1019 30.09 848 25.04 1 33.8 69 -4 24.8
02:25 1019 30.09 848 25.04 1 33.8 68 -4.1 24.6
02:30 1019 30.09 848 25.04 1.1 34.1 67 -4.2 24.4
02:35 1019 30.09 848 25.04 1.2 34.1 68 -4.2 24.5
02:40 1019 30.09 848 25.04 1.1 34 67 -4.3 24.3
02:45 1019 30.09 848 25.04 1.1 34 67 -4.4 24.1
02:50 1019 30.09 848 25.04 1.2 34.2 66 -4.4 24.1
02:55 1019 30.09 848 25.04 1.2 34.1 67 -4.3 24.2
03:00 1019 30.09 848 25.04 1.1 34 66 -4.6 23.7
03:05 1019 30.09 848 25.04 1.1 34 68 -4.1 24.5
03:10 1019 30.09 848 25.04 0.6 33.1 70 -4.3 24.3
03:15 1019 30.09 848 25.04 0.5 32.9 70 -4.4 24.1
03:20 1019 30.09 848 25.04 0.5 32.9 70 -4.4 24.1
03:25 1019 30.09 848 25.04 0.5 32.9 70 -4.4 24.2
03:30 1019 30.09 848 25.04 0.4 32.7 71 -4.2 24.5
03:35 1019 30.09 848 25.04 0.3 32.6 71 -4.4 24.2
03:40 1019 30.09 848 25.04 0.3 32.5 71 -4.5 24
03:45 1019 30.09 848 25.04 0.3 32.5 71 -4.4 24.2
03:50 1019 30.09 848 25.04 0.2 32.4 72 -4.3 24.2
03:55 1019 30.09 848 25.04 0.2 32.4 71 -4.4 24
04:00 1019 30.09 848 25.04 0.1 32.2 72 -4.3 24.2
04:05 1019 30.09 848 25.04 -0 31.9 73 -4.4 24.1
04:10 1019 30.09 848 25.04 -0.1 31.9 72 -4.4 24
04:15 1019 30.09 848 25.04 -0.2 31.7 73 -4.4 24.2
04:20 1019 30.09 848 25.04 -0.2 31.6 73 -4.5 24
04:25 1019 30.09 848 25.04 -0.3 31.5 73 -4.6 23.8
04:30 1019 30.09 848 25.04 -0.2 31.7 73 -4.5 23.8
04:35 1019 30.09 848 25.04 -0.1 31.7 71 -4.7 23.5
04:40 1019 30.09 848 25.04 0 32 71 -4.6 23.8
04:45 1019 30.09 848 25.04 0.1 32.1 71 -4.7 23.6
04:50 1019 30.09 848 25.04 0.1 32.1 71 -4.6 23.6
04:55 1019 30.09 848 25.04 -0 32 71 -4.7 23.5
05:00 1019 30.09 848 25.04 -0.1 31.9 71 -4.6 23.6
05:05 1019 30.09 848 25.04 -0.1 31.8 71 -4.7 23.5
05:10 1019 30.09 848 25.04 -0.1 31.8 71 -4.7 23.5
05:15 1019 30.09 848 25.04 -0.2 31.7 71 -4.8 23.4
05:20 1019 30.09 848 25.04 -0.2 31.6 71 -4.8 23.4
05:25 1019 30.09 848 25.04 -0.2 31.7 71 -4.8 23.4
05:30 1019 30.09 848 25.04 -0.2 31.7 71 -4.8 23.3
05:35 1019 30.09 848 25.04 -0.1 31.8 70 -4.9 23.2
05:40 1019 30.09 848 25.04 -0.2 31.7 71 -4.9 23.3
05:45 1019 30.09 848 25.04 -0.3 31.4 72 -4.8 23.4
05:50 1019 30.09 848 25.04 -0.4 31.3 72 -4.9 23.2
05:55 1019 30.09 848 25.04 -0.2 31.6 71 -4.9 23.2
06:00 1019 30.09 848 25.04 -0.2 31.6 70 -5 23.1
06:05 1019 30.09 848 25.04 -0.1 31.8 70 -4.9 23.1
06:10 1019 30.09 848 25.04 -0.1 31.7 70 -4.9 23.2
06:15 1019 30.09 848 25.04 -0.2 31.6 71 -4.8 23.3
06:20 1019 30.09 848 25.04 -0.2 31.6 71 -4.9 23.1
06:25 1019 30.09 848 25.04 -0.3 31.4 72 -4.8 23.3
06:30 1019 30.09 848 25.04 -0.4 31.2 72 -4.9 23.1
06:35 1019 30.09 848 25.04 -0.6 31 72 -5 23.1
06:40 1019 30.09 848 25.04 -0.6 30.9 72 -5.1 22.9
06:45 1019 30.09 848 25.04 -0.5 31 71 -5.1 22.7
06:50 1019 30.09 848 25.04 -0 32 68 -5.2 22.6
06:55 1019 30.09 848 25.04 0.3 32.6 67 -5.1 22.9
07:00 1019 30.09 848 25.04 0.4 32.6 67 -5.1 22.9
07:05 1019 30.09 848 25.04 0.3 32.6 68 -5 23.1
07:10 1019 30.09 848 25.04 0.2 32.4 69 -4.9 23.2
07:15 1019 30.09 848 25.04 0.2 32.3 68 -5.1 22.9
07:20 1019 30.09 849 25.07 0.5 32.9 67 -5 23
07:25 1019 30.09 849 25.07 0.7 33.2 66 -5 23.1
07:30 1019 30.09 849 25.07 0.9 33.5 65 -4.9 23.1
07:35 1019 30.09 849 25.07 1 33.8 65 -4.9 23.2
07:40 1019 30.09 849 25.07 1.2 34.2 65 -4.7 23.5
07:45 1020 30.12 849 25.07 1.3 34.4 64 -4.7 23.6
07:50 1020 30.12 849 25.07 1.5 34.7 64 -4.6 23.8
07:55 1020 30.12 849 25.07 1.6 34.8 64 -4.5 24
08:00 1020 30.12 849 25.07 1.8 35.2 64 -4.4 24.1
08:05 1020 30.12 849 25.07 2.1 35.8 62 -4.4 24
08:10 1020 30.12 849 25.07 2.4 36.3 60 -4.5 23.9
08:15 1020 30.12 849 25.07 2.7 36.8 59 -4.4 24
08:20 1020 30.12 849 25.07 3 37.4 58 -4.6 23.8
08:25 1020 30.12 849 25.07 3.6 38.5 54 -4.7 23.5
08:30 1020 30.12 849 25.07 4.3 39.8 52 -4.7 23.5
08:35 1020 30.12 849 25.07 4.7 40.5 50 -4.7 23.6
08:40 1020 30.12 849 25.07 4.8 40.7 51 -4.5 24
08:45 1020 30.12 849 25.07 5.3 41.6 51 -3.9 25
08:50 1020 30.12 849 25.07 6.1 42.9 46 -4.7 23.6
08:55 1020 30.12 849 25.07 6.8 44.3 44 -4.4 24
09:00 1020 30.12 849 25.07 7.3 45.2 42 -4.9 23.3
09:05 1020 30.12 849 25.07 7.5 45.4 39 -5.6 22
09:10 1020 30.12 849 25.07 7.6 45.6 40 -5.3 22.5
09:15 1020 30.12 849 25.07 7.2 45 39 -5.7 21.7
09:20 1020 30.12 849 25.07 7.6 45.6 39 -5.6 21.9
09:25 1020 30.12 849 25.07 7.8 46 39 -5.4 22.3
09:30 1020 30.12 849 25.07 8 46.3 38 -5.5 22.1
09:35 1020 30.12 849 25.07 8 46.5 38 -5.2 22.6
09:40 1019 30.09 849 25.07 8.1 46.5 38 -5.5 22.1
09:45 1019 30.09 849 25.07 8.7 47.6 37 -5 22.9
09:50 1019 30.09 849 25.07 9.1 48.4 36 -5.3 22.5
09:55 1019 30.09 849 25.07 9.2 48.5 37 -4.6 23.7
10:00 1019 30.09 849 25.07 9.9 49.8 35 -4.7 23.5
10:05 1019 30.09 849 25.07 9.9 49.9 36 -4.6 23.7
10:10 1019 30.09 849 25.07 9.2 48.5 38 -4.5 23.8
10:15 1019 30.09 849 25.07 9.1 48.4 35 -5.5 22.1
10:20 1019 30.09 849 25.07 9.7 49.5 34 -5.5 22.1
10:25 1019 30.09 849 25.07 9.5 49.1 36 -5 23.1
10:30 1019 30.09 848 25.04 9.8 49.7 33 -5.5 22.2
10:35 1019 30.09 848 25.04 9.6 49.4 34 -5.6 21.9
10:40 1019 30.09 848 25.04 10.1 50.2 32 -6 21.2
10:45 1019 30.09 848 25.04 10.9 51.6 31 -5.4 22.3
10:50 1019 30.09 848 25.04 11.2 52.1 34 -4 24.9
10:55 1019 30.09 848 25.04 10.7 51.2 35 -4 24.8
11:00 1019 30.09 848 25.04 11.2 52.2 34 -4 24.7
11:05 1019 30.09 848 25.04 11.3 52.3 34 -4.2 24.5
11:10 1019 30.09 848 25.04 11.6 52.8 33 -4.2 24.5
11:15 1019 30.09 848 25.04 12.4 54.2 31 -4.1 24.7
11:20 1019 30.09 848 25.04 12.3 54.1 31 -4.3 24.3
11:25 1019 30.09 848 25.04 12.1 53.8 30 -4.9 23.3
11:30 1019 30.09 848 25.04 12.7 54.8 28 -5.1 22.8
11:35 1019 30.09 848 25.04 13 55.5 28 -4.8 23.3
11:40 1019 30.09 848 25.04 12.7 54.8 29 -4.8 23.4
11:45 1019 30.09 848 25.04 12.4 54.4 28 -5.4 22.3
11:50 1019 30.09 848 25.04 12.7 54.9 27 -5.6 22
11:55 1019 30.09 848 25.04 13.4 56.1 26 -5.7 21.7
12:00 1019 30.09 848 25.04 13.9 57.1 26 -5.3 22.4
12:05 1019 30.09 848 25.04 14.1 57.4 26 -5.1 22.9
12:10 1019 30.09 848 25.04 14.2 57.5 26 -5.1 22.9
12:15 1019 30.09 848 25.04 14 57.2 27 -4.9 23.3
12:20 1019 30.09 848 25.04 14.2 57.6 25 -5.4 22.3
12:25 1019 30.09 848 25.04 14.2 57.6 25 -5.4 22.3
12:30 1019 30.09 848 25.04 14.3 57.8 23 -6.3 20.7
12:35 1018 30.06 848 25.04 14.9 58.8 22 -6.7 20
12:40 1018 30.06 848 25.04 14.7 58.4 24 -5.8 21.5
12:45 1018 30.06 847 25.01 14.6 58.3 24 -5.9 21.4
12:50 1018 30.06 847 25.01 14.6 58.3 22 -6.6 20.1
12:55 1018 30.06 847 25.01 14.9 58.8 22 -6.4 20.6
13:00 1018 30.06 847 25.01 15 59 23 -6.2 20.9
13:05 1018 30.06 847 25.01 14.7 58.4 23 -6.3 20.6
13:10 1018 30.06 847 25.01 15.4 59.6 22 -6.4 20.5
13:15 1018 30.06 847 25.01 15.5 60 22 -6.1 21.1
13:20 1018 30.06 847 25.01 14.9 58.7 23 -6.1 21
13:25 1018 30.06 847 25.01 15 59.1 23 -6.2 20.9
13:30 1018 30.06 847 25.01 14.3 57.8 22 -6.9 19.7
13:35 1018 30.06 847 25.01 15 59.1 21 -6.9 19.6
13:40 1018 30.06 847 25.01 15.7 60.2 20 -6.9 19.5
13:45 1018 30.06 847 25.01 15.3 59.6 21 -6.6 20.2
13:50 1018 30.06 847 25.01 16.3 61.3 20 -6.6 20.2
13:55 1018 30.06 847 25.01 16.2 61.2 21 -6.3 20.6
14:00 1018 30.06 847 25.01 15.9 60.7 22 -6 21.3
14:05 1018 30.06 847 25.01 16.5 61.7 23 -4.6 23.8
14:10 1018 30.06 847 25.01 16.3 61.4 21 -6 21.2
14:15 1018 30.06 847 25.01 17 62.7 20 -6.2 20.9
14:20 1018 30.06 847 25.01 17.1 62.9 19 -6.7 19.9
14:25 1018 30.06 847 25.01 16.7 62 21 -5.9 21.4
14:30 1018 30.06 847 25.01 16.1 61 22 -5.7 21.8
14:35 1017 30.03 847 25.01 16.1 61 21 -6.3 20.7
14:40 1017 30.03 847 25.01 16.1 61.1 20 -6.4 20.4
14:45 1017 30.03 847 25.01 15.8 60.4 22 -6 21.2
14:50 1017 30.03 846 24.98 16.4 61.5 20 -6.7 19.9
14:55 1017 30.03 846 24.98 16.3 61.3 21 -6.2 20.8
15:00 1017 30.03 846 24.98 16.5 61.8 20 -6.2 20.8
15:05 1017 30.03 846 24.98 16.8 62.2 20 -6 21.1
15:10 1017 30.03 846 24.98 17.1 62.7 20 -6.1 21
15:15 1017 30.03 846 24.98 16.7 62.1 22 -5.3 22.5
15:20 1017 30.03 846 24.98 16.4 61.5 21 -5.8 21.5
15:25 1017 30.03 846 24.98 15.5 60 22 -5.7 21.7
15:30 1017 30.03 846 24.98 17 62.5 20 -5.9 21.3
15:35 1017 30.03 846 24.98 17.7 63.8 20 -5.7 21.7
15:40 1017 30.03 846 24.98 17.5 63.4 19 -6 21.2
15:45 1017 30.03 846 24.98 17.4 63.3 19 -6.3 20.7
15:50 1017 30.03 846 24.98 17.3 63.1 20 -5.7 21.7
15:55 1017 30.03 846 24.98 17.8 64.1 19 -5.7 21.7
16:00 1017 30.03 846 24.98 17.8 64.1 20 -5.6 21.9
16:05 1017 30.03 846 24.98 17.6 63.7 20 -5.7 21.7
16:10 1017 30.03 846 24.98 17.9 64.2 19 -5.9 21.4
16:15 1017 30.03 846 24.98 17 62.5 20 -6 21.2
16:20 1017 30.03 846 24.98 17.5 63.5 19 -6 21.3
16:25 1017 30.03 846 24.98 17.8 64 20 -5.3 22.5
16:30 1017 30.03 846 24.98 17.8 64.1 20 -5.3 22.4
16:35 1016 30 846 24.98 17.9 64.2 19 -5.6 21.8
16:40 1016 30 846 24.98 18.2 64.7 19 -5.6 22
16:45 1016 30 846 24.98 18.3 65 19 -5.8 21.6
16:50 1016 30 846 24.98 18.1 64.7 19 -5.6 21.9
16:55 1016 30 846 24.98 18.1 64.6 19 -5.8 21.6
17:00 1016 30 846 24.98 18 64.4 19 -5.7 21.7
17:05 1016 30 846 24.98 17.4 63.3 20 -5.5 22.2
17:10 1016 30 846 24.98 17.8 64 19 -5.8 21.6
17:15 1016 30 845 24.95 17.8 64.1 20 -5.2 22.7
17:20 1016 30 845 24.95 17.8 64.1 20 -5.4 22.4
17:25 1016 30 845 24.95 18 64.4 20 -5.5 22.1
17:30 1016 30 845 24.95 18 64.4 19 -5.9 21.4
17:35 1016 30 845 24.95 18.3 64.9 19 -5.9 21.3
17:40 1016 30 845 24.95 18.7 65.7 18 -6 21.3
17:45 1016 30 845 24.95 18.7 65.6 19 -5.2 22.7
17:50 1016 30 845 24.95 18.5 65.3 19 -5.8 21.6
17:55 1016 30 845 24.95 18.1 64.6 19 -5.8 21.5
18:00 1016 30 845 24.95 18.1 64.6 19 -5.7 21.7
18:05 1016 30 845 24.95 17.1 62.8 21 -5.3 22.5
18:10 1016 30 845 24.95 17.2 63 20 -6 21.2
18:15 1016 30 845 24.95 16.7 62 21 -5.9 21.4
18:20 1016 30 845 24.95 17 62.7 19 -6.3 20.6
18:25 1016 30 845 24.95 16.8 62.2 20 -6.1 21
18:30 1016 30 845 24.95 17.3 63.2 19 -6.3 20.7
18:35 1016 30 845 24.95 17.2 63 20 -5.7 21.7
18:40 1016 30 845 24.95 16.5 61.8 21 -6 21.2
18:45 1016 30 845 24.95 16.3 61.3 20 -6.4 20.5
18:50 1016 30 845 24.95 16.1 61 21 -6.1 21
18:55 1016 30 845 24.95 15.9 60.6 22 -6 21.3
19:00 1016 30 845 24.95 16 60.8 21 -6.1 21
19:05 1016 30 845 24.95 16.3 61.4 21 -5.9 21.3
19:10 1016 30 845 24.95 16.3 61.3 21 -6.2 20.8
19:15 1016 30 845 24.95 15.9 60.6 21 -6.4 20.5
19:20 1016 30 845 24.95 15.9 60.6 21 -6.5 20.3
19:25 1016 30 845 24.95 15.8 60.5 21 -6.3 20.7
19:30 1016 30 845 24.95 15.8 60.4 21 -6.3 20.6
19:35 1016 30 845 24.95 15.7 60.2 21 -6.2 20.8
19:40 1016 30 845 24.95 15.7 60.2 21 -6.4 20.5
19:45 1016 30 845 24.95 15.5 59.9 22 -6.2 20.8
19:50 1016 30 845 24.95 15.4 59.7 22 -6.3 20.6
19:55 1016 30 845 24.95 15.3 59.5 22 -6.3 20.6
20:00 1016 30 845 24.95 15.1 59.2 22 -6.4 20.5
20:05 1016 30 845 24.95 15.1 59.1 23 -6.1 21
20:10 1016 30 845 24.95 15.1 59.1 24 -5.1 22.8
20:15 1016 30 845 24.95 14.7 58.4 35 -0.6 30.9
20:20 1016 30 845 24.95 13.5 56.3 38 -0.5 31.1
20:25 1016 30 845 24.95 12.6 54.8 39 -0.7 30.7
20:30 1016 30 845 24.95 12 53.5 42 -0.6 30.9
20:35 1016 30 845 24.95 11.4 52.6 43 -0.7 30.8
20:40 1016 30 845 24.95 11.1 51.9 43 -0.8 30.5
20:45 1016 30 845 24.95 10.8 51.5 44 -0.8 30.5
20:50 1016 30 845 24.95 10.4 50.7 46 -0.8 30.6
20:55 1016 30 845 24.95 10.1 50.2 46 -0.8 30.5
21:00 1016 30 845 24.95 9.9 49.7 47 -0.9 30.3
21:05 1016 30 845 24.95 9.4 48.9 47 -1.3 29.7
21:10 1016 30 845 24.95 9.3 48.7 48 -1.2 29.8
21:15 1016 30 845 24.95 9.3 48.7 45 -1.9 28.6
21:20 1016 30 845 24.95 9.3 48.8 44 -2.2 28.1
21:25 1016 30 845 24.95 9.2 48.5 46 -1.8 28.8
21:30 1016 30 845 24.95 8.8 47.9 47 -1.8 28.7
21:35 1016 30 845 24.95 8.7 47.6 47 -1.9 28.5
21:40 1016 30 845 24.95 8.4 47.2 48 -2 28.4
21:45 1016 30 845 24.95 8.3 46.9 48 -2.2 28
21:50 1016 30 845 24.95 8.4 47 47 -2.2 28.1
21:55 1016 30 845 24.95 8.3 46.9 48 -2.2 28.1
22:00 1016 30 845 24.95 8.1 46.5 48 -2.2 28.1
22:05 1016 30 845 24.95 7.9 46.2 48 -2.5 27.4
22:10 1016 30 845 24.95 8.3 47 45 -2.8 26.9
22:15 1016 30 845 24.95 8.4 47 46 -2.6 27.4
22:20 1016 30 845 24.95 8.1 46.6 47 -2.5 27.4
22:25 1016 30 845 24.95 8.1 46.5 46 -2.9 26.9
22:30 1016 30 845 24.95 8.2 46.7 45 -2.9 26.7
22:35 1016 30 845 24.95 8.2 46.7 45 -2.9 26.7
22:40 1016 30 845 24.95 8.1 46.6 45 -3 26.6
22:45 1016 30 845 24.95 7.9 46.2 48 -2.4 27.7
22:50 1016 30 845 24.95 7.7 45.9 46 -3.1 26.3
22:55 1016 30 845 24.95 7.9 46.3 44 -3.5 25.6
23:00 1016 30 845 24.95 8.2 46.7 43 -3.6 25.5
23:05 1016 30 845 24.95 8.2 46.8 42 -3.8 25.1
23:10 1016 30 845 24.95 7.9 46.2 47 -2.8 26.9
23:15 1016 30 845 24.95 7.5 45.6 46 -3.4 25.9
23:20 1016 30 845 24.95 7.4 45.4 47 -3 26.5
23:25 1016 30 845 24.95 7.4 45.4 47 -3.1 26.4
23:30 1016 30 845 24.95 7.6 45.7 44 -3.9 25
23:35 1016 30 845 24.95 7.9 46.2 43 -3.9 24.9
23:40 1016 30 845 24.95 7.9 46.3 46 -2.8 26.9
23:45 1016 30 845 24.95 7.3 45.1 48 -2.9 26.8
23:50 1016 30 845 24.95 7.1 44.7 49 -3 26.6
23:55 1016 30 845 24.95 7.1 44.8 48 -3.2 26.2
24:00 1016 30 845 24.95 7.3 45.2 47 -3.2 26.2